Terminal Aerodrome Forecast
Issued by NWS Upton, NY

Home | Current Version | Previous Version | Text Only | Print | Product List | Glossary On
Versions: 1 2 3 4 5 6 7 8 9 10 11 12 13 14 15 16 17 18 19 20 21 22 23 24 25 26 27 28 29 30 31 32 33 34
000
FTUS41 KOKX 260149 AAA
TAFISP
TAF AMD
KISP 260149Z 2602/2624 06015G23KT 3SM RA BR OVC006 WS020/11045KT
      TEMPO 2602/2605 2SM +RA BR
     FM260500 07014G20KT 3SM -RA BR OVC004 WS020/14045KT
      TEMPO 2605/2608 2SM -RA BR
     FM260800 08011KT 1SM -RA OVC004
     FM261600 07008KT 3SM BR OVC006
     FM261900 05005KT 5SM BR OVC006
     FM262300 VRB03KT 3/4SM BR OVC003=

USA.gov is the U.S. government's official web portal to all federal, state and local government web resources and services.